首页
METAR-TAF:

METAR-TAF

机场 :

安徒生, 南卡罗来纳州, 美国

纬度: 34-29-52N, 经度: 082-42-35W, 海拔: 238米

当前天气观测

该预报发布于30分钟前的10:56 UTC
风速8节,风向西南
温度 12°C
湿度 94%
气压 1003 hPa
能見度: 16.1公里
少量云层高于400英尺

METAR: KAND 241056Z AUTO 23008KT 10SM FEW004 12/11 A2961 RMK AO2 RAE34 SLP023 P0002 T01170111

时间: 06:26 (11:26 UTC)

预报

该预报发布于1小时和40分钟前的09:46 UTC
预报有效从24日的 10点(UTC)到 25日的 06点(UTC)
风速6节,风向东南
能見度: 9.7公里
散云层高于1400英尺
多云层高于2200英尺
小阵雨, 轻雾
短暂存在
从 24日的 10点(UTC)到 24日的 11点(UTC)
能見度: 3.2公里
多云层高于400英尺
雨, 轻雾
从 24日的 1200点(UTC)
风速11节,风向西转西南,有时为23节阵风
能見度: 10公里
散云层高于2200英尺
多云层高于4000英尺
附近有阵雨
从 24日的 1400点(UTC)
风速13节,风向西转西南,有时为22节阵风
能見度: 10公里
散云层高于6000英尺

TAF: KAND 240946Z 2410/2506 14006KT 6SM -SHRA BR SCT014 BKN022 TEMPO 2410/2411 2SM RA BR BKN004 FM241200 25011G23KT P6SM VCSH SCT022 BKN040 FM241400 25013G22KT P6SM SCT060

超过4000个机场的气象观测和天气预报(METAR&TAF报告)。

可查询的气象台以黄色和红色小点在地图上表示。

将鼠标移到小点上方,可查看气象台名称。

然后点击查看天气观测和预报。

如需切换地图:点击带黑十字的绿色按钮放大地图;点击带横线的绿色按钮缩小地图;或者点击绿色箭头查看邻近地区的地图。


METAR-TAF: